sensor_id;sensor_type;location;lat;lon;timestamp;P1;durP1;ratioP1;P2;durP2;ratioP2
10347;SDS011;5220;43.192;23.284;2024-01-30T00:00:01;16.50;;;9.13;;
10347;SDS011;5220;43.192;23.284;2024-01-30T00:02:28;16.17;;;10.10;;
10347;SDS011;5220;43.192;23.284;2024-01-30T00:04:56;19.70;;;10.97;;
10347;SDS011;5220;43.192;23.284;2024-01-30T00:07:22;8.10;;;6.17;;
10347;SDS011;5220;43.192;23.284;2024-01-30T00:09:49;10.90;;;7.00;;
10347;SDS011;5220;43.192;23.284;2024-01-30T00:12:16;13.97;;;8.70;;
10347;SDS011;5220;43.192;23.284;2024-01-30T00:14:42;31.03;;;15.10;;
10347;SDS011;5220;43.192;23.284;2024-01-30T00:17:09;32.23;;;16.50;;
10347;SDS011;5220;43.192;23.284;2024-01-30T00:19:36;33.90;;;18.27;;
10347;SDS011;5220;43.192;23.284;2024-01-30T00:22:04;23.07;;;15.53;;
10347;SDS011;5220;43.192;23.284;2024-01-30T00:24:31;6.70;;;5.10;;
10347;SDS011;5220;43.192;23.284;2024-01-30T00:26:57;7.63;;;5.57;;
10347;SDS011;5220;43.192;23.284;2024-01-30T00:29:24;7.30;;;5.60;;
10347;SDS011;5220;43.192;23.284;2024-01-30T00:31:55;8.47;;;5.70;;
10347;SDS011;5220;43.192;23.284;2024-01-30T00:34:22;8.10;;;5.53;;
10347;SDS011;5220;43.192;23.284;2024-01-30T00:36:48;8.40;;;6.03;;
10347;SDS011;5220;43.192;23.284;2024-01-30T00:39:16;12.30;;;6.67;;
10347;SDS011;5220;43.192;23.284;2024-01-30T00:41:44;9.03;;;5.90;;
10347;SDS011;5220;43.192;23.284;2024-01-30T00:44:11;6.47;;;4.97;;
10347;SDS011;5220;43.192;23.284;2024-01-30T00:46:38;8.43;;;5.90;;
10347;SDS011;5220;43.192;23.284;2024-01-30T00:49:04;13.97;;;7.37;;
10347;SDS011;5220;43.192;23.284;2024-01-30T00:51:31;18.20;;;9.60;;
10347;SDS011;5220;43.192;23.284;2024-01-30T00:53:58;33.70;;;15.70;;
10347;SDS011;5220;43.192;23.284;2024-01-30T00:56:26;18.87;;;10.00;;
10347;SDS011;5220;43.192;23.284;2024-01-30T00:58:52;17.93;;;9.83;;
10347;SDS011;5220;43.192;23.284;2024-01-30T01:01:19;13.70;;;8.37;;
10347;SDS011;5220;43.192;23.284;2024-01-30T01:03:46;14.90;;;7.97;;
10347;SDS011;5220;43.192;23.284;2024-01-30T01:06:13;13.13;;;8.17;;
10347;SDS011;5220;43.192;23.284;2024-01-30T01:08:40;7.97;;;5.27;;
10347;SDS011;5220;43.192;23.284;2024-01-30T01:11:07;8.03;;;5.23;;
10347;SDS011;5220;43.192;23.284;2024-01-30T01:13:35;6.50;;;4.40;;
10347;SDS011;5220;43.192;23.284;2024-01-30T01:16:01;5.83;;;4.27;;
10347;SDS011;5220;43.192;23.284;2024-01-30T01:18:29;5.83;;;4.60;;
10347;SDS011;5220;43.192;23.284;2024-01-30T01:20:55;7.53;;;5.30;;
10347;SDS011;5220;43.192;23.284;2024-01-30T01:23:22;7.63;;;5.00;;
10347;SDS011;5220;43.192;23.284;2024-01-30T01:25:49;5.30;;;4.50;;
10347;SDS011;5220;43.192;23.284;2024-01-30T01:28:15;7.30;;;5.20;;
10347;SDS011;5220;43.192;23.284;2024-01-30T01:30:43;9.07;;;5.83;;
10347;SDS011;5220;43.192;23.284;2024-01-30T01:33:10;7.30;;;5.70;;
10347;SDS011;5220;43.192;23.284;2024-01-30T01:35:39;7.37;;;4.33;;
10347;SDS011;5220;43.192;23.284;2024-01-30T01:38:05;5.83;;;4.07;;
10347;SDS011;5220;43.192;23.284;2024-01-30T01:40:32;5.47;;;4.20;;
10347;SDS011;5220;43.192;23.284;2024-01-30T01:43:02;7.87;;;4.47;;
10347;SDS011;5220;43.192;23.284;2024-01-30T01:45:30;6.73;;;4.93;;
10347;SDS011;5220;43.192;23.284;2024-01-30T01:47:58;8.40;;;5.87;;
10347;SDS011;5220;43.192;23.284;2024-01-30T01:50:25;7.17;;;5.67;;
10347;SDS011;5220;43.192;23.284;2024-01-30T01:52:52;5.90;;;4.90;;
10347;SDS011;5220;43.192;23.284;2024-01-30T01:55:20;7.10;;;5.43;;
10347;SDS011;5220;43.192;23.284;2024-01-30T01:57:49;8.27;;;6.03;;
10347;SDS011;5220;43.192;23.284;2024-01-30T02:00:16;6.93;;;4.87;;
10347;SDS011;5220;43.192;23.284;2024-01-30T02:02:44;6.90;;;4.93;;
10347;SDS011;5220;43.192;23.284;2024-01-30T02:05:13;8.97;;;6.23;;
10347;SDS011;5220;43.192;23.284;2024-01-30T02:07:40;8.40;;;6.20;;
10347;SDS011;5220;43.192;23.284;2024-01-30T02:10:08;9.50;;;5.67;;
10347;SDS011;5220;43.192;23.284;2024-01-30T02:12:35;8.83;;;6.17;;
10347;SDS011;5220;43.192;23.284;2024-01-30T02:15:02;8.73;;;6.30;;
10347;SDS011;5220;43.192;23.284;2024-01-30T02:17:30;9.60;;;6.40;;
10347;SDS011;5220;43.192;23.284;2024-01-30T02:19:57;7.00;;;5.40;;
10347;SDS011;5220;43.192;23.284;2024-01-30T02:22:25;5.50;;;4.90;;
10347;SDS011;5220;43.192;23.284;2024-01-30T02:24:51;6.97;;;5.43;;
10347;SDS011;5220;43.192;23.284;2024-01-30T02:27:18;7.53;;;5.60;;
10347;SDS011;5220;43.192;23.284;2024-01-30T02:29:45;7.13;;;5.73;;
10347;SDS011;5220;43.192;23.284;2024-01-30T02:32:12;6.67;;;5.43;;
10347;SDS011;5220;43.192;23.284;2024-01-30T02:34:38;7.70;;;4.73;;
10347;SDS011;5220;43.192;23.284;2024-01-30T02:37:05;5.87;;;4.20;;
10347;SDS011;5220;43.192;23.284;2024-01-30T02:39:33;5.07;;;3.83;;
10347;SDS011;5220;43.192;23.284;2024-01-30T02:42:00;6.90;;;4.27;;
10347;SDS011;5220;43.192;23.284;2024-01-30T02:44:26;6.77;;;4.67;;
10347;SDS011;5220;43.192;23.284;2024-01-30T02:46:53;7.23;;;5.67;;
10347;SDS011;5220;43.192;23.284;2024-01-30T02:49:20;6.07;;;5.13;;
10347;SDS011;5220;43.192;23.284;2024-01-30T02:51:47;6.67;;;4.83;;
10347;SDS011;5220;43.192;23.284;2024-01-30T02:54:13;8.07;;;5.63;;
10347;SDS011;5220;43.192;23.284;2024-01-30T02:56:41;12.97;;;8.10;;
10347;SDS011;5220;43.192;23.284;2024-01-30T02:59:08;11.53;;;7.87;;
10347;SDS011;5220;43.192;23.284;2024-01-30T03:01:41;12.23;;;8.37;;
10347;SDS011;5220;43.192;23.284;2024-01-30T03:04:08;7.43;;;6.23;;
10347;SDS011;5220;43.192;23.284;2024-01-30T03:06:35;8.10;;;5.20;;
10347;SDS011;5220;43.192;23.284;2024-01-30T03:09:02;5.63;;;4.70;;
10347;SDS011;5220;43.192;23.284;2024-01-30T03:11:29;6.30;;;5.03;;
10347;SDS011;5220;43.192;23.284;2024-01-30T03:13:57;7.53;;;4.90;;
10347;SDS011;5220;43.192;23.284;2024-01-30T03:16:24;7.33;;;5.63;;
10347;SDS011;5220;43.192;23.284;2024-01-30T03:18:51;8.17;;;6.33;;
10347;SDS011;5220;43.192;23.284;2024-01-30T03:21:18;10.30;;;6.63;;
10347;SDS011;5220;43.192;23.284;2024-01-30T03:23:44;10.13;;;6.80;;
10347;SDS011;5220;43.192;23.284;2024-01-30T03:26:11;11.70;;;7.70;;
10347;SDS011;5220;43.192;23.284;2024-01-30T03:28:38;10.03;;;7.23;;
10347;SDS011;5220;43.192;23.284;2024-01-30T03:31:06;12.93;;;8.10;;
10347;SDS011;5220;43.192;23.284;2024-01-30T03:33:33;12.53;;;8.83;;
10347;SDS011;5220;43.192;23.284;2024-01-30T03:36:02;11.43;;;7.87;;
10347;SDS011;5220;43.192;23.284;2024-01-30T03:38:29;12.20;;;8.13;;
10347;SDS011;5220;43.192;23.284;2024-01-30T03:40:57;10.33;;;7.00;;
10347;SDS011;5220;43.192;23.284;2024-01-30T03:43:24;8.53;;;5.13;;
10347;SDS011;5220;43.192;23.284;2024-01-30T03:45:51;6.07;;;4.87;;
10347;SDS011;5220;43.192;23.284;2024-01-30T03:48:19;8.93;;;6.03;;
10347;SDS011;5220;43.192;23.284;2024-01-30T03:50:47;9.13;;;5.57;;
10347;SDS011;5220;43.192;23.284;2024-01-30T03:53:14;9.60;;;6.77;;
10347;SDS011;5220;43.192;23.284;2024-01-30T03:55:40;9.93;;;7.03;;
10347;SDS011;5220;43.192;23.284;2024-01-30T03:58:07;14.13;;;8.93;;
10347;SDS011;5220;43.192;23.284;2024-01-30T04:00:34;13.77;;;9.73;;
10347;SDS011;5220;43.192;23.284;2024-01-30T04:03:00;8.20;;;6.27;;
10347;SDS011;5220;43.192;23.284;2024-01-30T04:05:28;6.50;;;4.90;;
10347;SDS011;5220;43.192;23.284;2024-01-30T04:07:55;6.93;;;5.17;;
10347;SDS011;5220;43.192;23.284;2024-01-30T04:10:22;7.93;;;5.80;;
10347;SDS011;5220;43.192;23.284;2024-01-30T04:12:49;8.43;;;6.30;;
10347;SDS011;5220;43.192;23.284;2024-01-30T04:15:16;8.83;;;5.90;;
10347;SDS011;5220;43.192;23.284;2024-01-30T04:17:43;9.07;;;6.77;;
10347;SDS011;5220;43.192;23.284;2024-01-30T04:20:13;8.73;;;5.67;;
10347;SDS011;5220;43.192;23.284;2024-01-30T04:22:41;6.47;;;4.93;;
10347;SDS011;5220;43.192;23.284;2024-01-30T04:25:08;6.40;;;4.83;;
10347;SDS011;5220;43.192;23.284;2024-01-30T04:27:35;6.87;;;5.57;;
10347;SDS011;5220;43.192;23.284;2024-01-30T04:30:02;8.97;;;6.27;;
10347;SDS011;5220;43.192;23.284;2024-01-30T04:32:29;7.37;;;5.47;;
10347;SDS011;5220;43.192;23.284;2024-01-30T04:34:56;7.53;;;6.00;;
10347;SDS011;5220;43.192;23.284;2024-01-30T04:37:22;8.10;;;6.13;;
10347;SDS011;5220;43.192;23.284;2024-01-30T04:39:51;7.67;;;5.17;;
10347;SDS011;5220;43.192;23.284;2024-01-30T04:42:17;5.23;;;4.60;;
10347;SDS011;5220;43.192;23.284;2024-01-30T04:44:44;7.63;;;6.07;;
10347;SDS011;5220;43.192;23.284;2024-01-30T04:47:11;11.17;;;5.93;;
10347;SDS011;5220;43.192;23.284;2024-01-30T04:49:38;12.37;;;6.30;;
10347;SDS011;5220;43.192;23.284;2024-01-30T04:52:05;11.90;;;8.07;;
10347;SDS011;5220;43.192;23.284;2024-01-30T04:54:32;35.93;;;22.07;;
10347;SDS011;5220;43.192;23.284;2024-01-30T04:57:00;27.80;;;17.50;;
10347;SDS011;5220;43.192;23.284;2024-01-30T04:59:27;14.83;;;9.90;;
10347;SDS011;5220;43.192;23.284;2024-01-30T05:01:54;9.00;;;6.80;;
10347;SDS011;5220;43.192;23.284;2024-01-30T05:04:21;17.50;;;12.07;;
10347;SDS011;5220;43.192;23.284;2024-01-30T05:06:48;20.33;;;14.27;;
10347;SDS011;5220;43.192;23.284;2024-01-30T05:09:14;16.97;;;11.17;;
10347;SDS011;5220;43.192;23.284;2024-01-30T05:11:41;14.40;;;9.20;;
10347;SDS011;5220;43.192;23.284;2024-01-30T05:14:09;8.23;;;5.63;;
10347;SDS011;5220;43.192;23.284;2024-01-30T05:16:37;7.90;;;5.77;;
10347;SDS011;5220;43.192;23.284;2024-01-30T05:19:03;18.10;;;10.77;;
10347;SDS011;5220;43.192;23.284;2024-01-30T05:21:30;15.73;;;10.50;;
10347;SDS011;5220;43.192;23.284;2024-01-30T05:23:56;16.27;;;9.87;;
10347;SDS011;5220;43.192;23.284;2024-01-30T05:26:23;9.43;;;6.30;;
10347;SDS011;5220;43.192;23.284;2024-01-30T05:28:50;5.23;;;4.33;;
10347;SDS011;5220;43.192;23.284;2024-01-30T05:31:18;4.57;;;3.97;;
10347;SDS011;5220;43.192;23.284;2024-01-30T05:33:45;6.17;;;4.30;;
10347;SDS011;5220;43.192;23.284;2024-01-30T05:36:12;4.90;;;4.27;;
10347;SDS011;5220;43.192;23.284;2024-01-30T05:38:39;10.17;;;6.43;;
10347;SDS011;5220;43.192;23.284;2024-01-30T05:41:06;21.67;;;13.57;;
10347;SDS011;5220;43.192;23.284;2024-01-30T05:43:32;22.47;;;14.57;;
10347;SDS011;5220;43.192;23.284;2024-01-30T05:45:59;23.73;;;14.50;;
10347;SDS011;5220;43.192;23.284;2024-01-30T05:48:27;20.50;;;14.40;;
10347;SDS011;5220;43.192;23.284;2024-01-30T05:50:54;22.67;;;15.03;;
10347;SDS011;5220;43.192;23.284;2024-01-30T05:53:21;25.53;;;16.50;;
10347;SDS011;5220;43.192;23.284;2024-01-30T05:55:48;34.17;;;21.10;;
10347;SDS011;5220;43.192;23.284;2024-01-30T05:58:15;38.63;;;21.67;;
10347;SDS011;5220;43.192;23.284;2024-01-30T06:00:41;37.50;;;23.07;;
10347;SDS011;5220;43.192;23.284;2024-01-30T06:03:08;40.47;;;23.33;;
10347;SDS011;5220;43.192;23.284;2024-01-30T06:05:36;36.70;;;22.63;;
10347;SDS011;5220;43.192;23.284;2024-01-30T06:08:03;37.53;;;21.37;;
10347;SDS011;5220;43.192;23.284;2024-01-30T06:10:30;38.57;;;20.20;;
10347;SDS011;5220;43.192;23.284;2024-01-30T06:12:57;30.97;;;16.53;;
10347;SDS011;5220;43.192;23.284;2024-01-30T06:15:23;26.13;;;18.17;;
10347;SDS011;5220;43.192;23.284;2024-01-30T06:17:51;33.83;;;23.50;;
10347;SDS011;5220;43.192;23.284;2024-01-30T06:20:17;27.47;;;17.17;;
10347;SDS011;5220;43.192;23.284;2024-01-30T06:22:46;30.43;;;16.20;;
10347;SDS011;5220;43.192;23.284;2024-01-30T06:25:13;26.70;;;17.13;;
10347;SDS011;5220;43.192;23.284;2024-01-30T06:27:39;28.77;;;16.53;;
10347;SDS011;5220;43.192;23.284;2024-01-30T06:30:06;31.90;;;16.47;;
10347;SDS011;5220;43.192;23.284;2024-01-30T06:32:34;35.63;;;20.13;;
10347;SDS011;5220;43.192;23.284;2024-01-30T06:35:01;31.57;;;18.63;;
10347;SDS011;5220;43.192;23.284;2024-01-30T06:37:28;35.63;;;19.83;;
10347;SDS011;5220;43.192;23.284;2024-01-30T06:39:56;26.30;;;18.17;;
10347;SDS011;5220;43.192;23.284;2024-01-30T06:42:23;24.30;;;15.93;;
10347;SDS011;5220;43.192;23.284;2024-01-30T06:44:50;16.97;;;11.73;;
10347;SDS011;5220;43.192;23.284;2024-01-30T06:47:17;17.27;;;12.03;;
10347;SDS011;5220;43.192;23.284;2024-01-30T06:49:43;19.60;;;13.27;;
10347;SDS011;5220;43.192;23.284;2024-01-30T06:52:10;19.77;;;12.70;;
10347;SDS011;5220;43.192;23.284;2024-01-30T06:54:37;25.20;;;17.20;;
10347;SDS011;5220;43.192;23.284;2024-01-30T06:57:06;24.37;;;16.10;;
10347;SDS011;5220;43.192;23.284;2024-01-30T06:59:36;22.00;;;15.57;;
10347;SDS011;5220;43.192;23.284;2024-01-30T07:02:06;23.80;;;15.33;;
10347;SDS011;5220;43.192;23.284;2024-01-30T07:04:33;23.43;;;16.47;;
10347;SDS011;5220;43.192;23.284;2024-01-30T07:07:02;20.43;;;13.77;;
10347;SDS011;5220;43.192;23.284;2024-01-30T07:09:29;16.67;;;10.43;;
10347;SDS011;5220;43.192;23.284;2024-01-30T07:11:56;14.93;;;8.37;;
10347;SDS011;5220;43.192;23.284;2024-01-30T07:14:25;13.13;;;8.13;;
10347;SDS011;5220;43.192;23.284;2024-01-30T07:16:52;12.00;;;7.50;;
10347;SDS011;5220;43.192;23.284;2024-01-30T07:19:18;8.53;;;6.20;;
10347;SDS011;5220;43.192;23.284;2024-01-30T07:21:45;11.50;;;6.83;;
10347;SDS011;5220;43.192;23.284;2024-01-30T07:24:12;8.23;;;6.00;;
10347;SDS011;5220;43.192;23.284;2024-01-30T07:26:39;9.00;;;6.63;;
10347;SDS011;5220;43.192;23.284;2024-01-30T07:29:06;9.37;;;6.97;;
10347;SDS011;5220;43.192;23.284;2024-01-30T07:31:34;9.73;;;6.63;;
10347;SDS011;5220;43.192;23.284;2024-01-30T07:34:00;8.67;;;6.60;;
10347;SDS011;5220;43.192;23.284;2024-01-30T07:36:27;10.30;;;6.80;;
10347;SDS011;5220;43.192;23.284;2024-01-30T07:38:54;12.57;;;8.23;;
10347;SDS011;5220;43.192;23.284;2024-01-30T07:41:20;9.33;;;6.47;;
10347;SDS011;5220;43.192;23.284;2024-01-30T07:43:48;10.33;;;7.00;;
10347;SDS011;5220;43.192;23.284;2024-01-30T07:46:14;9.40;;;6.70;;
10347;SDS011;5220;43.192;23.284;2024-01-30T07:48:42;11.27;;;7.73;;
10347;SDS011;5220;43.192;23.284;2024-01-30T07:51:09;12.97;;;8.37;;
10347;SDS011;5220;43.192;23.284;2024-01-30T07:53:36;12.37;;;8.93;;
10347;SDS011;5220;43.192;23.284;2024-01-30T07:56:02;12.13;;;7.73;;
10347;SDS011;5220;43.192;23.284;2024-01-30T07:58:29;12.00;;;7.63;;
10347;SDS011;5220;43.192;23.284;2024-01-30T08:00:56;8.53;;;6.43;;
10347;SDS011;5220;43.192;23.284;2024-01-30T08:03:23;13.83;;;9.03;;
10347;SDS011;5220;43.192;23.284;2024-01-30T08:05:51;8.30;;;6.63;;
10347;SDS011;5220;43.192;23.284;2024-01-30T08:08:18;10.60;;;8.37;;
10347;SDS011;5220;43.192;23.284;2024-01-30T08:10:44;10.20;;;6.93;;
10347;SDS011;5220;43.192;23.284;2024-01-30T08:13:11;13.00;;;8.70;;
10347;SDS011;5220;43.192;23.284;2024-01-30T08:15:38;12.60;;;8.63;;
10347;SDS011;5220;43.192;23.284;2024-01-30T08:18:05;12.47;;;7.87;;
10347;SDS011;5220;43.192;23.284;2024-01-30T08:20:32;8.00;;;6.07;;
10347;SDS011;5220;43.192;23.284;2024-01-30T08:23:00;7.90;;;6.03;;
10347;SDS011;5220;43.192;23.284;2024-01-30T08:25:27;7.57;;;5.90;;
10347;SDS011;5220;43.192;23.284;2024-01-30T08:27:53;8.30;;;5.83;;
10347;SDS011;5220;43.192;23.284;2024-01-30T08:30:20;10.70;;;6.27;;
10347;SDS011;5220;43.192;23.284;2024-01-30T08:32:46;15.27;;;9.17;;
10347;SDS011;5220;43.192;23.284;2024-01-30T08:35:14;17.47;;;10.17;;
10347;SDS011;5220;43.192;23.284;2024-01-30T08:37:42;27.33;;;18.40;;
10347;SDS011;5220;43.192;23.284;2024-01-30T08:40:10;16.63;;;9.97;;
10347;SDS011;5220;43.192;23.284;2024-01-30T08:42:37;25.50;;;15.80;;
10347;SDS011;5220;43.192;23.284;2024-01-30T08:45:04;21.17;;;13.50;;
10347;SDS011;5220;43.192;23.284;2024-01-30T08:47:31;23.57;;;16.67;;
10347;SDS011;5220;43.192;23.284;2024-01-30T08:49:59;12.90;;;9.67;;
10347;SDS011;5220;43.192;23.284;2024-01-30T08:52:25;14.33;;;8.47;;
10347;SDS011;5220;43.192;23.284;2024-01-30T08:54:52;13.20;;;9.43;;
10347;SDS011;5220;43.192;23.284;2024-01-30T08:57:20;10.27;;;7.30;;
10347;SDS011;5220;43.192;23.284;2024-01-30T08:59:47;6.80;;;5.30;;
10347;SDS011;5220;43.192;23.284;2024-01-30T09:02:14;11.77;;;7.60;;
10347;SDS011;5220;43.192;23.284;2024-01-30T09:04:41;12.13;;;8.40;;
10347;SDS011;5220;43.192;23.284;2024-01-30T09:07:08;14.80;;;7.53;;
10347;SDS011;5220;43.192;23.284;2024-01-30T09:09:35;6.70;;;5.43;;
10347;SDS011;5220;43.192;23.284;2024-01-30T09:12:04;4.77;;;4.27;;
10347;SDS011;5220;43.192;23.284;2024-01-30T09:14:35;6.60;;;5.40;;
10347;SDS011;5220;43.192;23.284;2024-01-30T09:17:02;7.10;;;4.43;;
10347;SDS011;5220;43.192;23.284;2024-01-30T09:19:30;7.80;;;4.90;;
10347;SDS011;5220;43.192;23.284;2024-01-30T09:21:56;6.13;;;4.30;;
10347;SDS011;5220;43.192;23.284;2024-01-30T09:24:23;9.20;;;5.10;;
10347;SDS011;5220;43.192;23.284;2024-01-30T09:26:50;7.47;;;5.20;;
10347;SDS011;5220;43.192;23.284;2024-01-30T09:29:16;5.37;;;4.43;;
10347;SDS011;5220;43.192;23.284;2024-01-30T09:31:44;5.60;;;4.33;;
10347;SDS011;5220;43.192;23.284;2024-01-30T09:34:11;4.07;;;3.57;;
10347;SDS011;5220;43.192;23.284;2024-01-30T09:36:38;8.43;;;5.37;;
10347;SDS011;5220;43.192;23.284;2024-01-30T09:39:05;9.60;;;6.60;;
10347;SDS011;5220;43.192;23.284;2024-01-30T09:41:32;14.37;;;7.73;;
10347;SDS011;5220;43.192;23.284;2024-01-30T09:44:02;7.90;;;5.03;;
10347;SDS011;5220;43.192;23.284;2024-01-30T09:46:31;7.87;;;5.43;;
10347;SDS011;5220;43.192;23.284;2024-01-30T09:49:02;6.87;;;5.30;;
10347;SDS011;5220;43.192;23.284;2024-01-30T09:51:30;7.97;;;6.50;;
10347;SDS011;5220;43.192;23.284;2024-01-30T09:53:57;4.47;;;3.70;;
10347;SDS011;5220;43.192;23.284;2024-01-30T09:56:23;6.50;;;5.37;;
10347;SDS011;5220;43.192;23.284;2024-01-30T09:58:50;75.43;;;34.60;;
10347;SDS011;5220;43.192;23.284;2024-01-30T10:01:17;12.70;;;6.47;;
10347;SDS011;5220;43.192;23.284;2024-01-30T10:03:44;8.00;;;5.20;;
10347;SDS011;5220;43.192;23.284;2024-01-30T10:06:13;3.97;;;3.10;;
10347;SDS011;5220;43.192;23.284;2024-01-30T10:08:42;6.53;;;3.53;;
10347;SDS011;5220;43.192;23.284;2024-01-30T10:11:09;9.00;;;7.07;;
10347;SDS011;5220;43.192;23.284;2024-01-30T10:13:36;9.60;;;5.30;;
10347;SDS011;5220;43.192;23.284;2024-01-30T10:16:05;5.60;;;3.73;;
10347;SDS011;5220;43.192;23.284;2024-01-30T10:18:32;5.33;;;3.57;;
10347;SDS011;5220;43.192;23.284;2024-01-30T10:20:59;4.40;;;4.00;;
10347;SDS011;5220;43.192;23.284;2024-01-30T10:23:28;3.27;;;2.87;;
10347;SDS011;5220;43.192;23.284;2024-01-30T10:25:55;4.00;;;3.50;;
10347;SDS011;5220;43.192;23.284;2024-01-30T10:28:22;3.40;;;2.90;;
10347;SDS011;5220;43.192;23.284;2024-01-30T10:30:56;4.40;;;3.30;;
10347;SDS011;5220;43.192;23.284;2024-01-30T10:33:24;7.27;;;4.50;;
10347;SDS011;5220;43.192;23.284;2024-01-30T10:35:53;4.40;;;3.90;;
10347;SDS011;5220;43.192;23.284;2024-01-30T10:38:22;6.37;;;4.40;;
10347;SDS011;5220;43.192;23.284;2024-01-30T10:40:54;6.27;;;3.90;;
10347;SDS011;5220;43.192;23.284;2024-01-30T10:43:23;4.27;;;3.30;;
10347;SDS011;5220;43.192;23.284;2024-01-30T10:45:55;4.07;;;3.37;;
10347;SDS011;5220;43.192;23.284;2024-01-30T10:48:26;3.30;;;2.90;;
10347;SDS011;5220;43.192;23.284;2024-01-30T10:50:56;3.17;;;2.87;;
10347;SDS011;5220;43.192;23.284;2024-01-30T10:53:25;13.93;;;8.87;;
10347;SDS011;5220;43.192;23.284;2024-01-30T10:55:54;5.55;;;3.67;;
10347;SDS011;5220;43.192;23.284;2024-01-30T10:58:23;7.03;;;4.33;;
10347;SDS011;5220;43.192;23.284;2024-01-30T11:00:51;5.03;;;3.63;;
10347;SDS011;5220;43.192;23.284;2024-01-30T11:03:18;6.37;;;4.33;;
10347;SDS011;5220;43.192;23.284;2024-01-30T11:05:48;3.92;;;3.40;;
10347;SDS011;5220;43.192;23.284;2024-01-30T11:08:22;4.00;;;3.20;;
10347;SDS011;5220;43.192;23.284;2024-01-30T11:10:54;5.47;;;3.60;;
10347;SDS011;5220;43.192;23.284;2024-01-30T11:13:26;4.65;;;3.80;;
10347;SDS011;5220;43.192;23.284;2024-01-30T11:15:54;4.68;;;3.50;;
10347;SDS011;5220;43.192;23.284;2024-01-30T11:18:24;5.13;;;4.30;;
10347;SDS011;5220;43.192;23.284;2024-01-30T11:20:52;6.78;;;5.18;;
10347;SDS011;5220;43.192;23.284;2024-01-30T11:23:18;4.17;;;3.20;;
10347;SDS011;5220;43.192;23.284;2024-01-30T11:25:48;6.32;;;4.38;;
10347;SDS011;5220;43.192;23.284;2024-01-30T11:28:16;4.57;;;3.45;;
10347;SDS011;5220;43.192;23.284;2024-01-30T11:30:43;4.97;;;3.37;;
10347;SDS011;5220;43.192;23.284;2024-01-30T11:33:14;4.73;;;3.70;;
10347;SDS011;5220;43.192;23.284;2024-01-30T11:35:41;5.07;;;3.78;;
10347;SDS011;5220;43.192;23.284;2024-01-30T11:38:09;5.20;;;3.60;;
10347;SDS011;5220;43.192;23.284;2024-01-30T11:40:37;5.30;;;3.72;;
10347;SDS011;5220;43.192;23.284;2024-01-30T11:43:07;4.47;;;3.42;;
10347;SDS011;5220;43.192;23.284;2024-01-30T11:45:35;5.10;;;3.53;;
10347;SDS011;5220;43.192;23.284;2024-01-30T11:48:04;6.50;;;5.00;;
10347;SDS011;5220;43.192;23.284;2024-01-30T11:50:32;6.10;;;4.68;;
10347;SDS011;5220;43.192;23.284;2024-01-30T11:53:00;5.13;;;4.30;;
10347;SDS011;5220;43.192;23.284;2024-01-30T11:55:27;5.22;;;4.03;;
10347;SDS011;5220;43.192;23.284;2024-01-30T11:57:55;4.50;;;3.63;;
10347;SDS011;5220;43.192;23.284;2024-01-30T12:00:22;5.30;;;4.28;;
10347;SDS011;5220;43.192;23.284;2024-01-30T12:02:50;5.78;;;4.38;;
10347;SDS011;5220;43.192;23.284;2024-01-30T12:05:21;12.15;;;8.75;;
10347;SDS011;5220;43.192;23.284;2024-01-30T12:07:48;5.60;;;4.40;;
10347;SDS011;5220;43.192;23.284;2024-01-30T12:10:14;8.68;;;4.82;;
10347;SDS011;5220;43.192;23.284;2024-01-30T12:12:43;7.25;;;5.10;;
10347;SDS011;5220;43.192;23.284;2024-01-30T12:15:11;5.65;;;4.53;;
10347;SDS011;5220;43.192;23.284;2024-01-30T12:17:39;5.70;;;4.25;;
10347;SDS011;5220;43.192;23.284;2024-01-30T12:20:08;9.40;;;4.95;;
10347;SDS011;5220;43.192;23.284;2024-01-30T12:22:36;8.10;;;4.60;;
10347;SDS011;5220;43.192;23.284;2024-01-30T12:25:04;8.40;;;4.57;;
10347;SDS011;5220;43.192;23.284;2024-01-30T12:27:31;7.95;;;5.43;;
10347;SDS011;5220;43.192;23.284;2024-01-30T12:29:58;6.97;;;5.50;;
10347;SDS011;5220;43.192;23.284;2024-01-30T12:32:25;5.28;;;4.40;;
10347;SDS011;5220;43.192;23.284;2024-01-30T12:34:54;5.28;;;3.67;;
10347;SDS011;5220;43.192;23.284;2024-01-30T12:37:23;5.18;;;3.60;;
10347;SDS011;5220;43.192;23.284;2024-01-30T12:39:50;3.90;;;3.33;;
10347;SDS011;5220;43.192;23.284;2024-01-30T12:42:19;4.18;;;3.58;;
10347;SDS011;5220;43.192;23.284;2024-01-30T12:44:46;4.10;;;3.67;;
10347;SDS011;5220;43.192;23.284;2024-01-30T12:47:13;4.93;;;4.25;;
10347;SDS011;5220;43.192;23.284;2024-01-30T12:49:41;4.22;;;3.28;;
10347;SDS011;5220;43.192;23.284;2024-01-30T12:52:08;4.38;;;3.70;;
10347;SDS011;5220;43.192;23.284;2024-01-30T12:54:36;15.93;;;7.50;;
10347;SDS011;5220;43.192;23.284;2024-01-30T12:57:03;9.18;;;7.18;;
10347;SDS011;5220;43.192;23.284;2024-01-30T12:59:30;7.40;;;5.32;;
10347;SDS011;5220;43.192;23.284;2024-01-30T13:01:58;4.50;;;3.35;;
10347;SDS011;5220;43.192;23.284;2024-01-30T13:04:26;5.00;;;4.00;;
10347;SDS011;5220;43.192;23.284;2024-01-30T13:06:53;7.22;;;5.03;;
10347;SDS011;5220;43.192;23.284;2024-01-30T13:09:20;5.65;;;4.63;;
10347;SDS011;5220;43.192;23.284;2024-01-30T13:11:48;4.28;;;3.75;;
10347;SDS011;5220;43.192;23.284;2024-01-30T13:14:16;9.98;;;7.05;;
10347;SDS011;5220;43.192;23.284;2024-01-30T13:16:42;4.68;;;3.92;;
10347;SDS011;5220;43.192;23.284;2024-01-30T13:19:09;4.88;;;3.75;;
10347;SDS011;5220;43.192;23.284;2024-01-30T13:21:36;6.90;;;4.85;;
10347;SDS011;5220;43.192;23.284;2024-01-30T13:24:03;5.97;;;4.28;;
10347;SDS011;5220;43.192;23.284;2024-01-30T13:26:31;5.50;;;4.55;;
10347;SDS011;5220;43.192;23.284;2024-01-30T13:28:59;5.03;;;3.97;;
10347;SDS011;5220;43.192;23.284;2024-01-30T13:31:26;5.10;;;4.57;;
10347;SDS011;5220;43.192;23.284;2024-01-30T13:33:53;4.65;;;3.60;;
10347;SDS011;5220;43.192;23.284;2024-01-30T13:36:20;5.35;;;4.03;;
10347;SDS011;5220;43.192;23.284;2024-01-30T13:38:47;3.92;;;3.50;;
10347;SDS011;5220;43.192;23.284;2024-01-30T13:41:14;4.10;;;3.70;;
10347;SDS011;5220;43.192;23.284;2024-01-30T13:43:41;6.15;;;5.25;;
10347;SDS011;5220;43.192;23.284;2024-01-30T13:46:10;9.13;;;6.78;;
10347;SDS011;5220;43.192;23.284;2024-01-30T13:48:37;5.90;;;4.07;;
10347;SDS011;5220;43.192;23.284;2024-01-30T13:51:04;5.65;;;4.55;;
10347;SDS011;5220;43.192;23.284;2024-01-30T13:53:31;8.45;;;5.43;;
10347;SDS011;5220;43.192;23.284;2024-01-30T13:55:57;5.80;;;5.20;;
10347;SDS011;5220;43.192;23.284;2024-01-30T13:58:24;5.90;;;4.38;;
10347;SDS011;5220;43.192;23.284;2024-01-30T14:00:52;7.03;;;4.70;;
10347;SDS011;5220;43.192;23.284;2024-01-30T14:03:20;4.38;;;3.47;;
10347;SDS011;5220;43.192;23.284;2024-01-30T14:05:46;6.05;;;4.00;;
10347;SDS011;5220;43.192;23.284;2024-01-30T14:08:14;12.15;;;9.90;;
10347;SDS011;5220;43.192;23.284;2024-01-30T14:10:41;23.35;;;9.55;;
10347;SDS011;5220;43.192;23.284;2024-01-30T14:13:08;12.00;;;6.88;;
10347;SDS011;5220;43.192;23.284;2024-01-30T14:15:36;10.70;;;7.75;;
10347;SDS011;5220;43.192;23.284;2024-01-30T14:18:03;8.88;;;6.53;;
10347;SDS011;5220;43.192;23.284;2024-01-30T14:20:34;20.52;;;13.55;;
10347;SDS011;5220;43.192;23.284;2024-01-30T14:23:01;14.65;;;8.00;;
10347;SDS011;5220;43.192;23.284;2024-01-30T14:25:28;8.18;;;6.07;;
10347;SDS011;5220;43.192;23.284;2024-01-30T14:27:54;9.40;;;6.60;;
10347;SDS011;5220;43.192;23.284;2024-01-30T14:30:21;12.48;;;8.30;;
10347;SDS011;5220;43.192;23.284;2024-01-30T14:32:48;7.10;;;5.57;;
10347;SDS011;5220;43.192;23.284;2024-01-30T14:35:14;9.95;;;6.55;;
10347;SDS011;5220;43.192;23.284;2024-01-30T14:37:43;10.63;;;7.00;;
10347;SDS011;5220;43.192;23.284;2024-01-30T14:40:09;9.95;;;7.47;;